Latest Weather Observations for Proserpine

IDQ60801

Issued at 8:21 pm EST Friday 18 January 2019 (issued every 10 minutes, with the page automatically refreshed every 10 minutes)

About weather observations | Map of weather stations | Latest weather observations for QLD | Other Formats
Station Details ID: 033247 Name: PROSERPINE AIRPORT Lat: -20.49 Lon: 148.56 Height: 19.7 m
Data from the previous 72 hours. | See also: Recent months at Proserpine
Date/Time
EST
Temp
°C
App
Temp
°C
Dew
Point
°C
Rel
Hum
%
Delta-T
°C
Wind Press
QNH
hPa
Press
MSL
hPa
Rain since
9am
mm
Dir  Spd
km/h
Gust
km/h
Spd
kts
Gust
kts
18/08:00pm 25.5 27.7 21.2 77 2.8 E 11 17 6 9 1013.6 1013.5 0.0
18/07:30pm 25.6 27.5 21.3 77 2.8 E 13 15 7 8 1013.3 1013.2 0.0
18/07:00pm 26.2 27.4 21.4 75 3.2 E 17 22 9 12 1013.1 1013.0 0.0
18/06:30pm 26.6 27.5 21.6 74 3.3 E 19 24 10 13 1012.7 1012.6 0.0
18/06:00pm 27.4 28.0 21.4 70 4.0 E 20 32 11 17 1012.3 1012.2 0.0
18/05:30pm 28.0 28.5 21.1 66 4.6 E 20 28 11 15 1011.8 1011.7 0.0
18/05:00pm 28.8 29.5 21.6 65 4.8 ESE 20 33 11 18 1011.5 1011.4 0.0
18/04:47pm 28.8 29.5 21.6 65 4.8 E 20 28 11 15 1011.3 1011.2 0.0
18/04:30pm 29.1 29.7 21.3 62 5.2 E 20 30 11 16 1011.3 1011.2 0.0
18/04:28pm 29.0 29.9 22.0 66 4.7 E 20 30 11 16 1011.3 1011.2 0.0
18/04:00pm 29.0 29.9 22.0 66 4.7 E 20 32 11 17 1011.4 1011.3 0.0
18/03:30pm 29.8 30.9 23.0 67 4.7 E 22 32 12 17 1011.5 1011.4 0.0
18/03:00pm 29.5 30.3 22.5 66 4.8 E 22 33 12 18 1011.7 1011.6 0.0
18/02:30pm 30.0 31.0 22.9 65 4.9 ESE 22 32 12 17 1011.7 1011.6 0.0
18/02:00pm 28.7 29.0 21.5 65 4.8 ESE 22 32 12 17 1011.9 1011.8 0.0
18/01:30pm 30.2 31.3 23.1 65 4.9 E 22 33 12 18 1012.0 1011.9 0.0
18/01:00pm 30.2 31.5 22.6 63 5.2 E 20 28 11 15 1012.1 1012.0 0.0
18/12:30pm 29.9 30.6 22.3 63 5.2 E 22 32 12 17 1012.1 1012.0 0.0
18/12:00pm 30.0 31.3 22.4 63 5.2 E 19 28 10 15 1012.4 1012.3 0.0
18/11:30am 28.4 28.9 21.9 68 4.4 E 22 32 12 17 1012.7 1012.6 0.0
18/11:00am 29.4 30.3 22.6 67 4.6 E 22 32 12 17 1012.6 1012.5 0.0
18/10:30am 29.8 31.2 22.8 66 4.8 ESE 20 33 11 18 1012.6 1012.5 0.0
18/10:00am 28.9 30.7 23.3 72 3.8 E 19 26 10 14 1012.8 1012.7 0.0
18/09:30am 28.0 29.0 21.8 69 4.2 E 19 24 10 13 1012.8 1012.7 0.0
18/09:00am 28.3 30.0 23.0 73 3.6 E 19 24 10 13 1012.8 1012.7 0.0
18/08:30am 27.2 28.9 22.4 75 3.2 E 17 28 9 15 1012.7 1012.6 0.0
18/08:00am 26.5 30.8 23.6 84 2.0 SSE 7 11 4 6 1012.5 1012.4 0.0
18/07:30am 24.9 27.9 22.6 87 1.5 S 11 17 6 9 1012.6 1012.5 0.0
18/07:00am 24.3 27.6 22.6 90 1.1 SSW 9 11 5 6 1012.3 1012.2 0.0
18/06:30am 23.7 26.5 22.3 92 0.9 SSW 11 13 6 7 1011.9 1011.8 0.0
18/06:00am 22.8 25.8 22.0 95 0.5 S 9 11 5 6 1011.5 1011.4 0.0
18/05:30am 22.6 25.5 21.8 95 0.5 SSW 9 13 5 7 1010.9 1010.8 0.0
18/05:00am 22.7 25.3 21.9 95 0.5 SSW 11 15 6 8 1010.8 1010.7 0.0
18/04:58am 22.7 25.6 21.7 94 0.7 SSW 9 13 5 7 1010.7 1010.6 0.0
18/04:50am 22.7 25.9 21.7 94 0.7 SSW 7 9 4 5 1010.6 1010.5 0.0
18/04:30am 22.8 25.3 21.8 94 0.7 SSW 11 13 6 7 1010.3 1010.2 0.0
18/04:16am 22.9 25.5 21.9 94 0.7 SSW 11 13 6 7 1010.3 1010.2 0.0
18/04:12am 22.9 25.5 21.9 94 0.7 SSW 11 15 6 8 1010.3 1010.2 0.0
18/04:00am 22.9 25.0 21.7 93 0.8 SSW 13 15 7 8 1010.3 1010.2 0.0
18/03:30am 23.0 25.5 21.8 93 0.8 SSW 11 13 6 7 1010.3 1010.2 0.0
18/03:00am 22.9 25.4 21.7 93 0.8 SSW 11 13 6 7 1010.2 1010.1 0.0
18/02:46am 22.9 25.8 21.7 93 0.8 SSW 9 13 5 7 1010.2 1010.1 0.0
18/02:42am 22.9 25.8 21.7 93 0.8 SSW 9 13 5 7 1010.2 1010.1 0.0
18/02:30am 22.9 25.7 21.5 92 0.9 SSW 9 9 5 5 1010.4 1010.3 0.0
18/02:25am 22.9 25.7 21.5 92 0.9 SSW 9 11 5 6 1010.3 1010.2 0.0
18/02:00am 22.8 25.2 21.6 93 0.8 SSW 11 13 6 7 1010.7 1010.6 0.0
18/01:30am 22.8 25.9 21.4 92 0.9 SSW 7 9 4 5 1011.0 1010.9 0.0
18/01:00am 22.9 26.0 21.4 91 1.0 SSW 7 9 4 5 1011.1 1011.0 0.0
18/12:30am 23.0 25.7 21.3 90 1.1 SSW 9 9 5 5 1011.4 1011.3 0.0
18/12:00am 24.3 26.8 21.0 82 2.2 ESE 9 11 5 6 1011.7 1011.6 0.0
 
Date/Time
EST
Temp
°C
App
Temp
°C
Dew
Point
°C
Rel
Hum
%
Delta-T
°C
Wind Press
QNH
hPa
Press
MSL
hPa
Rain since
9am
mm
Dir  Spd
km/h
Gust
km/h
Spd
kts
Gust
kts
17/11:30pm 24.8 27.1 21.3 81 2.3 E 11 13 6 7 1012.2 1012.1 0.0
17/11:00pm 25.2 27.7 21.7 81 2.3 E 11 15 6 8 1012.3 1012.2 0.0
17/10:30pm 25.3 27.6 21.4 79 2.6 E 11 17 6 9 1012.5 1012.4 0.0
17/10:00pm 25.3 27.8 21.8 81 2.3 ESE 11 17 6 9 1012.5 1012.4 0.0
17/09:30pm 25.4 27.4 21.5 79 2.6 ESE 13 19 7 10 1012.3 1012.2 0.0
17/09:00pm 25.5 27.1 21.4 78 2.7 ESE 15 22 8 12 1012.1 1012.0 0.0
17/08:30pm 25.5 27.7 21.8 80 2.5 ESE 13 20 7 11 1011.9 1011.8 0.0
17/08:00pm 25.4 27.1 21.7 80 2.5 ESE 15 19 8 10 1011.6 1011.5 0.0
17/07:30pm 25.9 27.3 21.8 78 2.7 E 17 22 9 12 1011.3 1011.2 0.0
17/07:00pm 26.0 27.2 21.4 76 3.1 E 17 22 9 12 1011.1 1011.0 0.0
17/06:30pm 26.6 27.6 21.8 75 3.2 E 19 24 10 13 1010.8 1010.7 0.0
17/06:00pm 26.7 27.4 21.5 73 3.5 E 20 30 11 16 1010.2 1010.1 0.0
17/05:30pm 27.4 27.3 21.4 70 4.0 ESE 24 32 13 17 1009.9 1009.8 0.0
17/05:00pm 28.3 28.0 21.1 65 4.8 ESE 24 35 13 19 1009.8 1009.7 0.0
17/04:30pm 28.4 28.4 20.9 64 5.0 ESE 22 35 12 19 1009.5 1009.4 0.0
17/04:00pm 29.0 28.5 21.5 64 5.0 ESE 26 33 14 18 1009.5 1009.4 0.0
17/03:30pm 29.0 28.5 21.5 64 5.0 ESE 26 35 14 19 1009.7 1009.6 0.0
17/03:00pm 29.0 29.2 22.0 66 4.7 ESE 24 32 13 17 1009.9 1009.8 0.0
17/02:30pm 29.8 30.6 21.7 61 5.5 ESE 20 32 11 17 1010.2 1010.1 0.0
17/02:00pm 30.0 31.1 22.4 63 5.2 ESE 20 28 11 15 1010.5 1010.4 0.0
17/01:30pm 29.4 29.6 22.1 65 4.9 ESE 24 33 13 18 1010.8 1010.7 0.0
17/01:00pm 29.2 30.2 21.7 64 5.0 ESE 19 28 10 15 1011.2 1011.1 0.0
17/12:30pm 28.9 28.9 20.9 62 5.3 ESE 22 33 12 18 1011.4 1011.3 0.0
17/12:00pm 29.6 29.8 21.3 61 5.6 ESE 22 30 12 16 1011.6 1011.5 0.0
17/11:30am 29.6 30.6 22.1 64 5.1 ESE 20 30 11 16 1011.9 1011.8 0.0
17/11:00am 28.9 29.3 20.9 62 5.3 ESE 20 28 11 15 1012.0 1011.9 0.0
17/10:30am 27.9 27.3 19.7 61 5.3 ESE 22 32 12 17 1012.2 1012.1 0.0
17/10:00am 28.6 29.5 21.9 67 4.5 SE 20 28 11 15 1012.3 1012.2 0.0
17/09:30am 27.1 26.5 20.4 66 4.4 SE 24 32 13 17 1012.2 1012.1 0.0
17/09:00am 26.9 27.6 21.2 71 3.8 ESE 19 30 10 16 1012.3 1012.2 0.0
17/08:30am 27.2 27.7 21.2 69 4.0 ESE 20 26 11 14 1012.2 1012.1 0.0
17/08:00am 26.1 29.1 22.6 81 2.4 SSE 11 17 6 9 1012.1 1012.0 0.0
17/07:30am 25.4 28.7 21.9 81 2.3 SSE 7 13 4 7 1012.1 1012.0 0.0
17/07:00am 22.7 25.9 21.7 94 0.7 SSW 7 9 4 5 1012.1 1012.0 0.0
17/06:30am 21.8 24.8 20.8 94 0.6 SSW 6 7 3 4 1011.7 1011.6 0.0
17/06:00am 21.3 23.9 20.5 95 0.5 SSW 7 7 4 4 1011.4 1011.3 0.0
17/05:30am 21.1 23.6 20.3 95 0.5 SSW 7 9 4 5 1011.1 1011.0 0.0
17/05:00am 21.3 25.2 20.3 94 0.6 CALM 0 0 0 0 1010.6 1010.5 0.0
17/04:30am 21.4 25.3 20.4 94 0.6 CALM 0 0 0 0 1010.5 1010.4 0.0
17/04:00am 21.4 24.5 20.2 93 0.8 SW 4 6 2 3 1010.4 1010.3 0.0
17/03:30am 21.7 24.3 20.5 93 0.8 SSW 7 9 4 5 1010.5 1010.4 0.0
17/03:00am 22.1 24.5 20.9 93 0.8 SSW 9 11 5 6 1010.6 1010.5 0.0
17/02:30am 22.1 25.1 20.9 93 0.8 SW 6 7 3 4 1010.7 1010.6 0.0
17/02:00am 22.4 25.5 21.0 92 0.9 S 6 9 3 5 1010.9 1010.8 0.0
17/01:30am 22.9 25.9 21.2 90 1.1 SSE 7 9 4 5 1011.0 1010.9 0.0
17/01:00am 22.9 26.2 21.5 92 0.9 S 6 9 3 5 1011.2 1011.1 0.0
17/12:30am 22.8 25.5 21.3 91 1.0 S 9 11 5 6 1011.5 1011.4 0.0
17/12:00am 23.0 26.3 21.5 91 1.0 SSW 6 9 3 5 1011.9 1011.8 0.0
 
Date/Time
EST
Temp
°C
App
Temp
°C
Dew
Point
°C
Rel
Hum
%
Delta-T
°C
Wind Press
QNH
hPa
Press
MSL
hPa
Rain since
9am
mm
Dir  Spd
km/h
Gust
km/h
Spd
kts
Gust
kts
16/11:30pm 22.9 25.7 21.5 92 0.9 SSW 9 9 5 5 1012.1 1012.0 0.0
16/11:00pm 23.0 25.4 21.5 91 1.0 S 11 13 6 7 1012.1 1012.0 0.0
16/10:30pm 23.2 27.0 21.6 91 1.1 S 4 7 2 4 1012.2 1012.1 0.0
16/10:00pm 22.9 26.8 21.2 90 1.1 WSW 2 7 1 4 1012.1 1012.0 0.0
16/09:30pm 22.9 26.2 21.4 91 1.0 SW 6 9 3 5 1012.1 1012.0 0.0
16/09:00pm 23.8 27.0 21.3 86 1.6 S 6 7 3 4 1011.9 1011.8 0.0
16/08:30pm 24.1 27.5 21.6 86 1.7 ESE 6 7 3 4 1011.6 1011.5 0.0
16/08:00pm 24.7 27.4 21.4 82 2.2 ESE 9 13 5 7 1011.3 1011.2 0.0
16/07:30pm 25.3 27.3 21.6 80 2.5 E 13 20 7 11 1011.1 1011.0 0.0
16/07:00pm 25.5 26.6 21.2 77 2.8 ESE 17 20 9 11 1011.0 1010.9 0.0
16/06:30pm 26.4 27.3 21.6 75 3.2 E 19 32 10 17 1010.5 1010.4 0.0
16/06:00pm 27.1 26.7 20.9 69 4.1 E 24 35 13 19 1010.1 1010.0 0.0
16/05:30pm 27.6 28.2 21.4 69 4.1 E 20 35 11 19 1009.8 1009.7 0.0
16/05:00pm 28.0 28.4 21.8 69 4.2 E 22 30 12 16 1009.6 1009.5 0.0
16/04:30pm 28.4 28.4 21.7 67 4.5 E 24 33 13 18 1009.4 1009.3 0.0
16/04:00pm 29.2 29.4 21.4 63 5.2 E 22 32 12 17 1009.4 1009.3 0.0
16/03:30pm 29.0 29.0 21.0 62 5.3 E 22 33 12 18 1009.5 1009.4 0.0
16/03:00pm 28.5 28.8 20.8 63 5.1 E 20 30 11 16 1009.5 1009.4 0.0
16/02:30pm 28.8 29.1 20.8 62 5.3 E 20 28 11 15 1009.6 1009.5 0.0
16/02:00pm 29.6 29.5 20.7 58 5.9 ESE 22 28 12 15 1010.1 1010.0 0.0
16/01:30pm 29.7 29.9 20.5 57 6.1 ESE 20 26 11 14 1010.4 1010.3 0.0
16/01:00pm 29.7 31.0 22.7 66 4.8 E 20 28 11 15 1010.7 1010.6 0.0
16/12:30pm 28.9 29.1 20.6 61 5.5 ESE 20 28 11 15 1011.2 1011.1 0.0
16/12:00pm 29.0 29.4 21.0 62 5.3 ESE 20 28 11 15 1011.7 1011.6 0.0
16/11:30am 29.4 30.1 21.6 63 5.2 ESE 20 26 11 14 1012.0 1011.9 0.0
16/11:00am 28.7 29.0 20.7 62 5.3 ESE 20 26 11 14 1012.4 1012.3 0.0
16/10:30am 28.5 29.1 21.0 64 5.0 ESE 19 26 10 14 1012.7 1012.6 0.0
16/10:00am 27.2 27.5 20.8 68 4.2 ESE 20 30 11 16 1012.7 1012.6 0.0
16/09:30am 28.3 29.0 21.6 67 4.5 ESE 20 28 11 15 1012.8 1012.7 0.0
16/09:00am 28.1 28.7 21.4 67 4.5 SE 20 28 11 15 1012.8 1012.7 0.0
16/08:30am 27.7 28.5 21.7 70 4.0 SE 20 28 11 15 1012.6 1012.5 0.0
16/08:00am 26.8 28.8 22.2 76 3.1 S 15 20 8 11 1012.7 1012.6 0.0
16/07:30am 25.7 27.5 21.8 79 2.6 S 15 20 8 11 1012.5 1012.4 0.0
16/07:00am 23.9 26.3 21.6 87 1.5 S 11 15 6 8 1012.4 1012.3 0.0
16/06:30am 22.6 24.8 21.2 92 0.9 SSW 11 15 6 8 1012.3 1012.2 0.0
16/06:00am 21.5 24.2 20.7 95 0.5 SSW 7 9 4 5 1012.2 1012.1 0.0
16/05:30am 21.3 23.8 20.3 94 0.6 SSW 7 9 4 5 1011.6 1011.5 0.0
16/05:00am 21.5 24.1 20.5 94 0.6 SW 7 9 4 5 1011.2 1011.1 0.0
16/04:30am 21.8 24.1 20.6 93 0.8 SSW 9 11 5 6 1010.9 1010.8 0.0
16/04:00am 22.1 24.4 20.7 92 0.9 SW 9 11 5 6 1010.7 1010.6 0.0
16/03:30am 22.6 24.6 20.7 89 1.2 S 11 13 6 7 1010.5 1010.4 0.0
16/03:00am 22.9 24.8 20.6 87 1.5 S 11 15 6 8 1010.6 1010.5 0.0
16/02:30am 23.4 25.1 20.9 86 1.6 S 13 17 7 9 1010.8 1010.7 0.0
16/02:00am 23.5 25.6 21.0 86 1.6 S 11 17 6 9 1011.2 1011.1 0.0
16/01:30am 23.6 25.4 21.1 86 1.6 SSE 13 17 7 9 1011.4 1011.3 0.0
16/01:00am 23.8 26.5 21.3 86 1.6 SSE 9 15 5 8 1011.6 1011.5 0.0
16/12:30am 23.9 26.7 21.6 87 1.5 S 9 15 5 8 1011.8 1011.7 0.0
16/12:00am 23.6 26.4 21.5 88 1.4 S 9 11 5 6 1012.0 1011.9 0.0
 
Date/Time
EST
Temp
°C
App
Temp
°C
Dew
Point
°C
Rel
Hum
%
Delta-T
°C
Wind Press
QNH
hPa
Press
MSL
hPa
Rain since
9am
mm
Dir  Spd
km/h
Gust
km/h
Spd
kts
Gust
kts
15/11:30pm 24.1 26.4 21.4 85 1.8 SSE 11 17 6 9 1012.4 1012.3 0.0
15/11:00pm 24.6 26.8 21.1 81 2.3 SSE 11 15 6 8 1012.6 1012.5 0.0
15/10:30pm 25.1 27.0 21.4 80 2.4 ESE 13 17 7 9 1012.8 1012.7 0.0
15/10:00pm 25.2 27.3 21.7 81 2.3 ESE 13 17 7 9 1012.7 1012.6 0.0
15/09:30pm 25.1 26.4 21.6 81 2.3 ESE 17 22 9 12 1012.5 1012.4 0.0
15/09:00pm 25.0 26.7 21.7 82 2.2 ESE 15 22 8 12 1012.3 1012.2 0.0
15/08:30pm 24.8 27.1 21.3 81 2.3 ESE 11 13 6 7 1012.4 1012.3 0.0

Other Formats:

Comma delimited format used in spreadsheet applications
http://www.bom.gov.au/fwo/IDQ60801/IDQ60801.94365.axf

JavaScript Object Notation format (JSON) in row-major order
http://www.bom.gov.au/fwo/IDQ60801/IDQ60801.94365.json